createdAt,value
2022-09-24T00:01:36.499Z,4.68
2022-09-24T00:04:06.133Z,4.13
2022-09-24T00:06:44.453Z,3.83
2022-09-24T00:09:13.271Z,3.88
2022-09-24T00:11:46.431Z,4.63
2022-09-24T00:14:14.085Z,4.03
2022-09-24T00:16:41.333Z,3.92
2022-09-24T00:19:08.250Z,4.43
2022-09-24T00:21:36.747Z,4.82
2022-09-24T00:24:07.384Z,4.30
2022-09-24T00:26:49.679Z,3.88
2022-09-24T00:29:22.986Z,3.90
2022-09-24T00:31:55.023Z,4.32
2022-09-24T00:34:21.822Z,3.95
2022-09-24T00:36:48.557Z,3.90
2022-09-24T00:39:15.850Z,4.43
2022-09-24T00:41:49.026Z,3.83
2022-09-24T00:44:38.771Z,3.90
2022-09-24T00:47:05.886Z,4.25
2022-09-24T00:49:32.711Z,4.20
2022-09-24T00:51:59.333Z,4.15
2022-09-24T00:54:28.635Z,3.83
2022-09-24T00:56:57.475Z,4.72
2022-09-24T00:59:27.792Z,4.20
2022-09-24T01:01:57.695Z,4.00
2022-09-24T01:04:27.086Z,4.70
2022-09-24T01:06:54.457Z,3.95
2022-09-24T01:09:24.307Z,4.35
2022-09-24T01:12:22.149Z,4.40
2022-09-24T01:15:03.957Z,4.18
2022-09-24T01:18:03.029Z,4.25
2022-09-24T01:21:19.979Z,3.85
2022-09-24T01:24:23.171Z,4.00
2022-09-24T01:27:04.286Z,4.20
2022-09-24T01:29:53.393Z,3.92
2022-09-24T01:32:32.194Z,4.18
2022-09-24T01:35:31.537Z,4.82
2022-09-24T01:38:04.635Z,3.97
2022-09-24T01:40:31.882Z,4.18
2022-09-24T01:43:00.255Z,3.88
2022-09-24T01:45:32.502Z,4.22
2022-09-24T01:48:00.852Z,3.92
2022-09-24T01:50:33.687Z,4.07
2022-09-24T01:53:08.910Z,4.68
2022-09-24T01:55:42.153Z,4.30
2022-09-24T01:58:14.492Z,4.03
2022-09-24T02:00:46.765Z,3.92
2022-09-24T02:03:21.525Z,4.07
2022-09-24T02:05:59.410Z,4.45
2022-09-24T02:08:36.668Z,4.30
2022-09-24T02:11:08.224Z,4.13
2022-09-24T02:13:51.210Z,3.80
2022-09-24T02:16:27.002Z,4.57
2022-09-24T02:19:00.427Z,4.15
2022-09-24T02:21:33.063Z,4.50
2022-09-24T02:24:11.311Z,4.13
2022-09-24T02:26:40.379Z,4.25
2022-09-24T02:29:07.441Z,3.80
2022-09-24T02:31:42.993Z,3.88
2022-09-24T02:34:27.687Z,3.95
2022-09-24T02:37:09.590Z,4.38
2022-09-24T02:39:36.432Z,4.22
2022-09-24T02:42:07.721Z,3.85
2022-09-24T02:47:11.118Z,4.20
2022-09-24T02:49:37.674Z,4.10
2022-09-24T02:52:04.788Z,3.78
2022-09-24T02:54:31.797Z,3.65
2022-09-24T02:56:58.654Z,3.58
2022-09-24T02:59:25.243Z,3.30
2022-09-24T03:01:52.030Z,3.65
2022-09-24T03:04:18.718Z,3.83
2022-09-24T03:06:45.310Z,3.72
2022-09-24T03:09:12.987Z,4.45
2022-09-24T03:11:40.176Z,3.47
2022-09-24T03:14:06.946Z,3.70
2022-09-24T03:16:33.869Z,3.75
2022-09-24T03:19:00.542Z,3.72
2022-09-24T03:21:27.294Z,3.47
2022-09-24T03:23:53.895Z,3.55
2022-09-24T03:26:20.810Z,3.50
2022-09-24T03:28:58.698Z,3.63
2022-09-24T03:31:25.554Z,3.70
2022-09-24T03:33:52.580Z,4.03
2022-09-24T03:36:22.782Z,4.25
2022-09-24T03:38:56.308Z,4.00
2022-09-24T03:41:27.668Z,3.78
2022-09-24T03:43:55.639Z,3.53
2022-09-24T03:46:24.432Z,3.40
2022-09-24T03:48:51.131Z,3.53
2022-09-24T03:51:24.493Z,3.63
2022-09-24T03:53:51.145Z,4.00
2022-09-24T03:56:17.697Z,3.70
2022-09-24T03:58:47.465Z,3.83
2022-09-24T04:01:21.554Z,3.67
2022-09-24T04:03:49.657Z,3.97
2022-09-24T04:06:17.293Z,3.85
2022-09-24T04:08:46.199Z,3.53
2022-09-24T04:11:12.749Z,3.83
2022-09-24T04:13:39.240Z,3.30
2022-09-24T04:16:06.121Z,3.83
2022-09-24T04:18:39.034Z,3.92
2022-09-24T04:21:11.096Z,3.60
2022-09-24T04:23:37.666Z,3.92
2022-09-24T04:26:04.408Z,3.97
2022-09-24T04:28:31.534Z,4.22
2022-09-24T04:30:58.739Z,4.20
2022-09-24T04:33:25.578Z,4.55
2022-09-24T04:35:52.240Z,4.28
2022-09-24T04:38:20.379Z,4.40
2022-09-24T04:40:49.003Z,4.85
2022-09-24T04:43:15.724Z,4.68
2022-09-24T04:45:45.019Z,4.63
2022-09-24T04:48:12.207Z,4.50
2022-09-24T04:50:44.994Z,4.60
2022-09-24T04:53:12.529Z,5.13
2022-09-24T04:55:39.510Z,4.32
2022-09-24T04:58:06.060Z,3.85
2022-09-24T05:00:34.068Z,4.43
2022-09-24T05:03:05.723Z,4.00
2022-09-24T05:05:34.038Z,4.28
2022-09-24T05:08:01.498Z,4.32
2022-09-24T05:10:29.951Z,3.90
2022-09-24T05:12:56.532Z,3.92
2022-09-24T05:15:30.609Z,3.92
2022-09-24T05:17:57.489Z,4.22
2022-09-24T05:20:24.374Z,3.60
2022-09-24T05:22:51.359Z,4.28
2022-09-24T05:25:20.580Z,3.67
2022-09-24T05:27:48.984Z,4.38
2022-09-24T05:30:16.247Z,4.35
2022-09-24T05:32:43.240Z,3.35
2022-09-24T05:35:13.732Z,3.40
2022-09-24T05:37:41.145Z,3.42
2022-09-24T05:40:33.858Z,4.00
2022-09-24T05:43:04.442Z,4.68
2022-09-24T05:45:31.882Z,3.30
2022-09-24T05:48:00.267Z,3.85
2022-09-24T05:50:34.928Z,3.65
2022-09-24T05:53:02.682Z,3.50
2022-09-24T05:55:32.430Z,3.90
2022-09-24T05:58:04.334Z,3.97
2022-09-24T06:00:33.575Z,3.90
2022-09-24T06:03:10.598Z,4.85
2022-09-24T06:05:37.210Z,4.80
2022-09-24T06:08:05.353Z,4.40
2022-09-24T06:10:32.679Z,4.60
2022-09-24T06:12:59.307Z,4.18
2022-09-24T06:15:27.222Z,4.50
2022-09-24T06:17:57.529Z,4.15
2022-09-24T06:20:29.408Z,4.50
2022-09-24T06:22:59.142Z,4.78
2022-09-24T06:25:29.327Z,5.13
2022-09-24T06:28:01.681Z,4.05
2022-09-24T06:30:30.359Z,4.50
2022-09-24T06:33:05.818Z,4.05
2022-09-24T06:35:40.923Z,4.63
2022-09-24T06:38:11.196Z,4.30
2022-09-24T06:40:41.668Z,4.17
2022-09-24T06:43:10.836Z,4.90
2022-09-24T06:45:37.707Z,4.55
2022-09-24T06:48:06.124Z,4.20
2022-09-24T06:50:34.894Z,4.65
2022-09-24T06:53:05.428Z,5.38
2022-09-24T06:55:32.044Z,4.50
2022-09-24T06:58:04.365Z,4.75
2022-09-24T07:00:34.890Z,4.53
2022-09-24T07:03:01.969Z,5.45
2022-09-24T07:05:28.599Z,4.97
2022-09-24T07:07:55.252Z,4.50
2022-09-24T07:10:23.405Z,4.70
2022-09-24T07:12:50.253Z,4.43
2022-09-24T07:15:17.078Z,5.05
2022-09-24T07:17:43.635Z,5.40
2022-09-24T07:20:10.240Z,5.00
2022-09-24T07:22:42.283Z,5.25
2022-09-24T07:25:12.610Z,4.95
2022-09-24T07:27:39.474Z,5.18
2022-09-24T07:30:08.978Z,5.28
2022-09-24T07:32:36.143Z,4.72
2022-09-24T07:35:02.757Z,4.95
2022-09-24T07:37:32.647Z,4.95
2022-09-24T07:39:59.523Z,4.95
2022-09-24T07:42:26.234Z,5.30
2022-09-24T07:44:53.149Z,5.40
2022-09-24T07:47:19.725Z,5.05
2022-09-24T07:49:46.320Z,5.40
2022-09-24T07:52:13.197Z,5.32
2022-09-24T07:54:39.826Z,4.72
2022-09-24T07:57:12.950Z,5.05
2022-09-24T07:59:40.688Z,4.68
2022-09-24T08:02:15.643Z,5.35
2022-09-24T08:04:42.229Z,4.50
2022-09-24T08:07:08.864Z,5.45
2022-09-24T08:09:35.651Z,4.80
2022-09-24T08:12:02.242Z,4.65
2022-09-24T08:14:29.128Z,5.28
2022-09-24T08:16:55.734Z,4.45
2022-09-24T08:19:22.345Z,4.70
2022-09-24T08:21:48.986Z,4.97
2022-09-24T08:24:16.047Z,4.75
2022-09-24T08:26:42.743Z,4.97
2022-09-24T08:29:09.382Z,5.28
2022-09-24T08:31:36.101Z,4.90
2022-09-24T08:34:02.864Z,5.57
2022-09-24T08:36:29.634Z,6.63
2022-09-24T08:38:56.446Z,6.75
2022-09-24T08:41:35.491Z,7.18
2022-09-24T08:44:49.991Z,7.18
2022-09-24T08:47:30.969Z,7.03
2022-09-24T08:50:10.064Z,8.73
2022-09-24T08:52:42.734Z,6.45
2022-09-24T08:55:32.918Z,6.05
2022-09-24T08:58:17.886Z,5.60
2022-09-24T09:00:58.871Z,6.68
2022-09-24T09:03:36.685Z,5.90
2022-09-24T09:06:14.683Z,6.45
2022-09-24T09:09:06.956Z,6.20
2022-09-24T09:11:37.063Z,7.20
2022-09-24T09:14:29.257Z,6.78
2022-09-24T09:17:23.343Z,6.30
2022-09-24T09:19:56.689Z,6.65
2022-09-24T09:22:28.914Z,6.40
2022-09-24T09:25:04.147Z,7.03
2022-09-24T09:27:31.470Z,7.22
2022-09-24T09:30:03.090Z,6.88
2022-09-24T09:32:49.380Z,6.78
2022-09-24T09:35:55.047Z,7.97
2022-09-24T09:38:53.618Z,7.68
2022-09-24T09:41:20.197Z,7.53
2022-09-24T09:43:46.895Z,7.55
2022-09-24T09:46:29.177Z,7.28
2022-09-24T09:49:05.492Z,6.97
2022-09-24T09:51:38.534Z,7.10
2022-09-24T09:54:05.484Z,8.07
2022-09-24T09:56:56.295Z,8.55
2022-09-24T09:59:31.512Z,9.43
2022-09-24T10:01:58.442Z,7.90
2022-09-24T10:04:34.611Z,9.98
2022-09-24T10:07:12.996Z,9.02
2022-09-24T10:09:40.880Z,8.80
2022-09-24T10:12:22.386Z,8.23
2022-09-24T10:15:12.337Z,8.50
2022-09-24T10:17:40.187Z,10.05
2022-09-24T10:20:24.241Z,8.52
2022-09-24T10:22:53.590Z,10.05
2022-09-24T10:25:26.401Z,9.88
2022-09-24T10:28:16.144Z,9.70
2022-09-24T10:30:56.861Z,9.55
2022-09-24T10:33:24.152Z,9.57
2022-09-24T10:35:51.428Z,10.23
2022-09-24T10:38:20.530Z,9.85
2022-09-24T10:40:48.078Z,9.82
2022-09-24T10:43:20.549Z,10.10
2022-09-24T10:45:53.142Z,10.43
2022-09-24T10:48:39.853Z,10.48
2022-09-24T10:51:31.651Z,9.50
2022-09-24T10:54:23.624Z,11.05
2022-09-24T10:56:55.756Z,10.88
2022-09-24T10:59:43.387Z,11.38
2022-09-24T11:02:42.070Z,12.10
2022-09-24T11:05:16.008Z,9.98
2022-09-24T11:08:12.554Z,11.93
2022-09-24T11:11:16.917Z,10.77
2022-09-24T11:14:01.822Z,11.63
2022-09-24T11:16:39.055Z,11.20
2022-09-24T11:19:29.009Z,12.57
2022-09-24T11:22:24.908Z,10.70
2022-09-24T11:25:06.580Z,11.85
2022-09-24T11:27:39.174Z,11.65
2022-09-24T11:30:27.298Z,11.48
2022-09-24T11:33:22.747Z,12.25
2022-09-24T11:36:19.389Z,11.60
2022-09-24T11:39:17.752Z,11.65
2022-09-24T11:42:21.874Z,11.18
2022-09-24T11:45:16.692Z,10.40
2022-09-24T11:48:07.745Z,11.00
2022-09-24T11:50:58.514Z,12.30
2022-09-24T11:53:46.629Z,11.45
2022-09-24T11:56:43.145Z,11.55
2022-09-24T11:59:18.611Z,11.85
2022-09-24T12:01:53.336Z,11.32
2022-09-24T12:04:28.034Z,10.57
2022-09-24T12:07:18.212Z,12.20
2022-09-24T12:10:25.094Z,11.90
2022-09-24T12:12:57.343Z,16.67
2022-09-24T12:15:27.821Z,11.50
2022-09-24T12:18:12.211Z,12.85
2022-09-24T12:20:50.299Z,12.95
2022-09-24T12:23:21.260Z,13.35
2022-09-24T12:28:38.551Z,11.70
2022-09-24T12:31:38.476Z,8.95
2022-09-24T12:34:15.164Z,8.80
2022-09-24T12:37:05.596Z,7.88
2022-09-24T12:39:43.521Z,8.00
2022-09-24T12:42:13.609Z,7.72
2022-09-24T12:44:51.658Z,7.60
2022-09-24T12:47:26.838Z,7.78
2022-09-24T12:50:02.323Z,7.40
2022-09-24T12:52:38.135Z,8.13
2022-09-24T12:55:05.787Z,8.18
2022-09-24T12:57:39.891Z,8.43
2022-09-24T13:00:32.753Z,7.60
2022-09-24T13:03:00.649Z,6.72
2022-09-24T13:05:33.509Z,7.00
2022-09-24T13:08:20.074Z,7.65
2022-09-24T13:10:59.760Z,6.97
2022-09-24T13:13:33.186Z,7.18
2022-09-24T13:16:06.287Z,7.35
2022-09-24T13:18:37.356Z,7.00
2022-09-24T13:21:09.107Z,6.20
2022-09-24T13:23:35.710Z,6.82
2022-09-24T13:26:05.510Z,5.28
2022-09-24T13:28:58.423Z,6.03
2022-09-24T13:31:28.145Z,5.63
2022-09-24T13:34:12.719Z,4.60
2022-09-24T13:36:57.869Z,4.00
2022-09-24T13:39:45.971Z,4.28
2022-09-24T13:42:45.272Z,3.30
2022-09-24T13:45:18.763Z,3.80
2022-09-24T13:47:52.236Z,3.40
2022-09-24T13:50:24.341Z,3.70
2022-09-24T13:53:06.435Z,5.13
2022-09-24T13:55:45.109Z,3.80
2022-09-24T13:58:34.691Z,4.28
2022-09-24T14:01:16.493Z,4.20
2022-09-24T14:03:55.978Z,4.13
2022-09-24T14:06:38.015Z,4.40
2022-09-24T14:09:27.419Z,4.03
2022-09-24T14:11:58.098Z,3.97
2022-09-24T14:14:27.945Z,4.82
2022-09-24T14:17:05.463Z,3.78
2022-09-24T14:19:34.615Z,3.35
2022-09-24T14:22:03.594Z,3.47
2022-09-24T14:24:53.011Z,3.85
2022-09-24T14:27:22.306Z,3.00
2022-09-24T14:30:02.514Z,3.72
2022-09-24T14:32:39.351Z,2.90
2022-09-24T14:35:21.314Z,3.03
2022-09-24T14:37:55.363Z,2.92
2022-09-24T14:40:23.273Z,3.03
2022-09-24T14:42:54.765Z,3.10
2022-09-24T14:45:25.463Z,3.20
2022-09-24T14:48:19.372Z,2.78
2022-09-24T14:50:46.807Z,2.70
2022-09-24T14:53:26.987Z,3.00
2022-09-24T14:55:53.732Z,3.27
2022-09-24T14:58:29.879Z,2.92
2022-09-24T15:01:02.519Z,3.20
2022-09-24T15:03:49.673Z,3.60
2022-09-24T15:06:25.702Z,3.53
2022-09-24T15:09:00.797Z,3.47
2022-09-24T15:11:34.514Z,3.70
2022-09-24T15:14:16.242Z,3.80
2022-09-24T15:16:44.665Z,3.90
2022-09-24T15:19:17.000Z,3.70
2022-09-24T15:21:45.196Z,3.40
2022-09-24T15:24:12.100Z,3.30
2022-09-24T15:26:42.066Z,2.95
2022-09-24T15:29:23.972Z,3.72
2022-09-24T15:31:51.506Z,3.70
2022-09-24T15:34:20.161Z,3.95
2022-09-24T15:36:54.057Z,3.72
2022-09-24T15:39:21.539Z,4.07
2022-09-24T15:41:48.097Z,3.28
2022-09-24T15:44:23.102Z,3.85
2022-09-24T15:46:51.499Z,3.28
2022-09-24T15:49:22.809Z,3.05
2022-09-24T15:51:56.067Z,4.10
2022-09-24T15:54:24.700Z,4.07
2022-09-24T15:56:54.422Z,3.85
2022-09-24T15:59:23.935Z,3.67
2022-09-24T16:01:54.767Z,3.70
2022-09-24T16:04:21.458Z,4.28
2022-09-24T16:06:48.132Z,3.85
2022-09-24T16:09:14.859Z,4.43
2022-09-24T16:11:41.472Z,4.20
2022-09-24T16:14:09.282Z,4.00
2022-09-24T16:16:38.594Z,3.83
2022-09-24T16:19:07.360Z,4.10
2022-09-24T16:21:34.193Z,3.75
2022-09-24T16:24:01.326Z,3.65
2022-09-24T16:26:31.127Z,4.28
2022-09-24T16:28:58.061Z,3.80
2022-09-24T16:31:24.681Z,3.40
2022-09-24T16:33:51.291Z,4.28
2022-09-24T16:36:18.471Z,3.85
2022-09-24T16:38:53.962Z,3.78
2022-09-24T16:41:20.655Z,3.80
2022-09-24T16:43:47.215Z,3.75
2022-09-24T16:46:18.038Z,3.50
2022-09-24T16:48:49.366Z,3.67
2022-09-24T16:51:17.273Z,4.20
2022-09-24T16:53:48.420Z,3.92
2022-09-24T16:56:17.652Z,4.10
2022-09-24T16:58:46.015Z,4.13
2022-09-24T17:01:15.138Z,3.88
2022-09-24T17:03:42.378Z,4.20
2022-09-24T17:06:16.982Z,4.05
2022-09-24T17:09:02.065Z,3.80
2022-09-24T17:11:29.462Z,3.88
2022-09-24T17:13:57.206Z,4.35
2022-09-24T17:16:25.312Z,4.10
2022-09-24T17:18:54.502Z,3.63
2022-09-24T17:21:22.225Z,4.10
2022-09-24T17:23:49.396Z,4.00
2022-09-24T17:26:19.113Z,5.03
2022-09-24T17:28:48.770Z,3.97
2022-09-24T17:31:17.603Z,4.60
2022-09-24T17:33:44.669Z,4.40
2022-09-24T17:36:14.178Z,6.38
2022-09-24T17:38:40.898Z,4.72
2022-09-24T17:41:10.940Z,4.80
2022-09-24T17:43:38.444Z,6.07
2022-09-24T17:46:13.806Z,4.70
2022-09-24T17:48:44.644Z,4.65
2022-09-24T17:51:20.373Z,5.53
2022-09-24T17:53:47.328Z,5.13
2022-09-24T17:56:14.711Z,4.55
2022-09-24T17:58:47.065Z,4.60
2022-09-24T18:01:18.022Z,5.55
2022-09-24T18:03:45.910Z,4.18
2022-09-24T18:06:14.887Z,3.25
2022-09-24T18:08:46.075Z,3.65
2022-09-24T18:11:20.907Z,4.45
2022-09-24T18:13:55.733Z,3.53
2022-09-24T18:16:24.838Z,3.72
2022-09-24T18:18:51.517Z,4.07
2022-09-24T18:21:20.939Z,4.57
2022-09-24T18:23:48.098Z,3.75
2022-09-24T18:26:26.657Z,4.53
2022-09-24T18:28:59.342Z,5.22
2022-09-24T18:31:28.169Z,3.67
2022-09-24T18:33:57.133Z,4.05
2022-09-24T18:36:25.869Z,3.97
2022-09-24T18:38:53.873Z,3.72
2022-09-24T18:41:22.881Z,4.53
2022-09-24T18:43:50.299Z,3.95
2022-09-24T18:46:18.789Z,3.83
2022-09-24T18:48:48.498Z,4.03
2022-09-24T18:51:20.189Z,4.40
2022-09-24T18:53:59.075Z,4.88
2022-09-24T18:56:27.031Z,5.70
2022-09-24T18:58:56.641Z,5.22
2022-09-24T19:01:23.548Z,5.90
2022-09-24T19:03:50.415Z,5.15
2022-09-24T19:06:17.363Z,4.18
2022-09-24T19:08:43.954Z,4.93
2022-09-24T19:11:13.853Z,4.35
2022-09-24T19:13:42.774Z,4.15
2022-09-24T19:16:12.522Z,3.70
2022-09-24T19:18:40.518Z,3.92
2022-09-24T19:21:09.705Z,4.50
2022-09-24T19:23:50.603Z,3.78
2022-09-24T19:26:25.716Z,3.88
2022-09-24T19:28:53.125Z,4.40
2022-09-24T19:31:31.771Z,3.00
2022-09-24T19:34:04.383Z,3.35
2022-09-24T19:36:36.258Z,3.35
2022-09-24T19:39:05.532Z,3.85
2022-09-24T19:41:32.156Z,3.45
2022-09-24T19:44:08.201Z,3.90
2022-09-24T19:46:35.649Z,3.33
2022-09-24T19:49:04.820Z,3.83
2022-09-24T19:51:33.246Z,4.18
2022-09-24T19:54:04.952Z,3.85
2022-09-24T19:56:32.103Z,4.20
2022-09-24T19:59:02.175Z,4.07
2022-09-24T20:01:30.809Z,4.28
2022-09-24T20:04:00.369Z,4.18
2022-09-24T20:06:31.356Z,4.75
2022-09-24T20:11:26.516Z,4.63
2022-09-24T20:13:55.406Z,5.78
2022-09-24T20:16:27.392Z,5.53
2022-09-24T20:19:05.278Z,5.25
2022-09-24T20:21:36.890Z,5.70
2022-09-24T20:24:05.647Z,5.07
2022-09-24T20:26:51.793Z,4.90
2022-09-24T20:29:22.881Z,5.30
2022-09-24T20:31:52.682Z,5.20
2022-09-24T20:34:25.025Z,5.30
2022-09-24T20:37:00.370Z,4.97
2022-09-24T20:39:28.120Z,5.80
2022-09-24T20:41:55.709Z,5.25
2022-09-24T20:44:24.794Z,5.43
2022-09-24T20:46:54.344Z,6.18
2022-09-24T20:49:23.027Z,7.10
2022-09-24T20:51:57.444Z,7.35
2022-09-24T20:54:25.729Z,6.78
2022-09-24T20:56:55.973Z,6.53
2022-09-24T20:59:22.988Z,7.20
2022-09-24T21:01:49.838Z,6.40
2022-09-24T21:04:17.361Z,7.32
2022-09-24T21:06:43.929Z,6.22
2022-09-24T21:09:10.515Z,6.50
2022-09-24T21:11:37.818Z,7.93
2022-09-24T21:14:04.431Z,7.88
2022-09-24T21:16:37.928Z,7.60
2022-09-24T21:19:07.862Z,7.47
2022-09-24T21:21:38.858Z,8.43
2022-09-24T21:24:07.688Z,7.28
2022-09-24T21:26:37.693Z,7.50
2022-09-24T21:29:09.141Z,6.95
2022-09-24T21:31:37.533Z,6.78
2022-09-24T21:34:06.785Z,6.78
2022-09-24T21:36:42.920Z,7.18
2022-09-24T21:39:17.429Z,6.40
2022-09-24T21:41:45.912Z,7.00
2022-09-24T21:44:17.682Z,7.13
2022-09-24T21:46:45.227Z,7.20
2022-09-24T21:49:14.808Z,6.38
2022-09-24T21:51:41.972Z,6.28
2022-09-24T21:54:13.185Z,6.75
2022-09-24T21:56:40.292Z,6.60
2022-09-24T21:59:25.472Z,7.18
2022-09-24T22:01:52.483Z,6.38
2022-09-24T22:04:19.516Z,6.70
2022-09-24T22:06:48.339Z,6.55
2022-09-24T22:09:15.874Z,5.82
2022-09-24T22:11:43.816Z,6.38
2022-09-24T22:14:12.125Z,7.15
2022-09-24T22:16:39.032Z,6.10
2022-09-24T22:19:07.209Z,7.05
2022-09-24T22:21:34.375Z,7.22
2022-09-24T22:24:01.240Z,8.60
2022-09-24T22:26:29.644Z,7.13
2022-09-24T22:28:57.086Z,8.10
2022-09-24T22:31:23.780Z,8.32
2022-09-24T22:34:09.201Z,8.43
2022-09-24T22:36:36.148Z,7.70
2022-09-24T22:39:04.773Z,9.32
2022-09-24T22:41:32.639Z,9.73
2022-09-24T22:43:59.380Z,9.02
2022-09-24T22:46:27.358Z,9.98
2022-09-24T22:48:57.445Z,10.27
2022-09-24T22:51:26.875Z,9.77
2022-09-24T22:53:54.473Z,10.25
2022-09-24T22:56:23.910Z,10.52
2022-09-24T22:58:56.527Z,10.68
2022-09-24T23:01:26.694Z,9.85
2022-09-24T23:03:55.349Z,10.43
2022-09-24T23:06:22.760Z,9.43
2022-09-24T23:08:49.803Z,9.95
2022-09-24T23:11:18.949Z,9.15
2022-09-24T23:13:46.800Z,10.05
2022-09-24T23:16:19.224Z,8.50
2022-09-24T23:18:57.429Z,9.50
2022-09-24T23:21:26.052Z,9.88
2022-09-24T23:23:57.321Z,10.07
2022-09-24T23:26:25.314Z,9.50
2022-09-24T23:28:53.267Z,9.32
2022-09-24T23:31:27.351Z,8.20
2022-09-24T23:33:55.781Z,8.13
2022-09-24T23:36:23.197Z,8.45
2022-09-24T23:38:50.450Z,8.73
2022-09-24T23:41:17.403Z,7.65
2022-09-24T23:43:44.164Z,8.02
2022-09-24T23:46:11.298Z,7.68
2022-09-24T23:48:38.217Z,7.78
2022-09-24T23:51:06.053Z,8.93
2022-09-24T23:53:34.224Z,8.65
2022-09-24T23:56:02.387Z,8.60
2022-09-24T23:58:29.218Z,8.52
